Time;durP1;ratioP1;P1;durP2;ratioP2;P2;SDS_P1;SDS_P2;PMS_P1;PMS_P2;Temp;Humidity;BMP_temperature;BMP_pressure;BME280_temperature;BME280_humidity;BME280_pressure;Samples;Min_cycle;Max_cycle;Signal;HPM_P1;HPM_P2
2023/11/14 00:00:14;;;;;;;50.50;7.95;;;11.70;98.40;;;;;;5013487;28;20391;-74
2023/11/14 00:02:40;;;;;;;37.45;6.38;;;11.70;98.70;;;;;;5013078;28;20046;-74
2023/11/14 00:05:06;;;;;;;40.58;6.50;;;11.70;96.60;;;;;;5012976;28;20452;-74
2023/11/14 00:07:32;;;;;;;35.53;6.72;;;11.70;94.30;;;;;;5013237;28;20034;-74
2023/11/14 00:09:57;;;;;;;33.47;6.65;;;11.70;94.20;;;;;;5013127;28;20061;-73
2023/11/14 00:12:24;;;;;;;41.30;6.97;;;11.70;96.30;;;;;;5013086;28;20026;-74
2023/11/14 00:14:49;;;;;;;37.75;6.93;;;11.70;96.50;;;;;;5013386;28;20089;-74
2023/11/14 00:17:15;;;;;;;30.52;6.18;;;11.80;94.80;;;;;;5013101;28;20124;-73
2023/11/14 00:19:42;;;;;;;38.75;6.68;;;11.70;93.90;;;;;;5013021;28;20057;-74
2023/11/14 00:22:08;;;;;;;30.65;6.22;;;11.70;93.90;;;;;;5013436;28;20088;-74
2023/11/14 00:24:34;;;;;;;34.95;5.13;;;11.70;95.10;;;;;;5013264;28;20479;-74
2023/11/14 00:27:00;;;;;;;29.30;6.20;;;11.70;94.30;;;;;;5012945;28;20033;-74
2023/11/14 00:29:27;;;;;;;42.30;6.97;;;11.70;96.30;;;;;;5013440;28;20022;-74
2023/11/14 00:31:53;;;;;;;42.47;6.68;;;11.60;94.20;;;;;;5012990;28;20026;-73
2023/11/14 00:34:19;;;;;;;37.45;6.78;;;11.70;92.70;;;;;;5013383;28;20034;-74
2023/11/14 00:36:46;;;;;;;32.00;5.90;;;11.70;90.60;;;;;;5012862;28;20088;-73
2023/11/14 00:39:14;;;;;;;33.42;6.35;;;11.70;91.80;;;;;;5013290;28;20505;-74
2023/11/14 00:41:40;;;;;;;26.88;5.80;;;11.70;93.70;;;;;;5013117;28;20034;-74
2023/11/14 00:44:06;;;;;;;32.78;5.72;;;11.70;92.10;;;;;;5013124;28;20550;-73
2023/11/14 00:46:31;;;;;;;35.75;6.05;;;11.70;91.30;;;;;;5012666;28;20510;-74
2023/11/14 00:48:57;;;;;;;32.30;5.82;;;11.70;91.20;;;;;;5012789;28;20160;-74
2023/11/14 00:51:23;;;;;;;36.45;6.30;;;11.70;91.60;;;;;;5013273;28;20057;-74
2023/11/14 00:53:51;;;;;;;35.22;6.75;;;11.70;92.60;;;;;;5016535;28;20493;-74
2023/11/14 00:56:17;;;;;;;36.97;6.32;;;11.70;93.10;;;;;;5016718;28;20171;-73
2023/11/14 00:58:43;;;;;;;36.78;5.90;;;11.70;91.30;;;;;;5016510;28;20542;-74
2023/11/14 01:01:09;;;;;;;28.80;5.75;;;11.70;90.30;;;;;;5016421;28;20034;-73
2023/11/14 01:03:34;;;;;;;36.47;6.40;;;11.70;89.40;;;;;;5016063;28;20042;-74
2023/11/14 01:06:00;;;;;;;38.08;6.15;;;11.80;86.30;;;;;;5016237;28;20034;-73
2023/11/14 01:08:26;;;;;;;28.80;5.82;;;11.80;80.20;;;;;;5016375;28;20076;-74
2023/11/14 01:10:52;;;;;;;32.08;6.05;;;11.90;71.40;;;;;;5015836;28;20061;-74
2023/11/14 01:13:18;;;;;;;38.72;7.18;;;11.80;77.10;;;;;;5016156;28;20061;-74
2023/11/14 01:15:44;;;;;;;33.10;6.40;;;11.80;81.60;;;;;;5016219;28;20451;-73
2023/11/14 01:18:10;;;;;;;31.02;6.47;;;11.80;76.50;;;;;;5016258;28;20160;-74
2023/11/14 01:20:36;;;;;;;37.30;6.10;;;11.90;72.50;;;;;;5015767;28;20120;-74
2023/11/14 01:23:01;;;;;;;32.40;6.60;;;11.80;75.00;;;;;;5016187;28;20116;-74
2023/11/14 01:25:27;;;;;;;37.47;7.28;;;11.90;75.70;;;;;;5015842;28;20089;-74
2023/11/14 01:27:53;;;;;;;27.65;5.85;;;11.80;80.20;;;;;;5015569;28;20545;-74
2023/11/14 01:30:18;;;;;;;41.28;7.50;;;11.80;85.10;;;;;;5016028;28;20029;-74
2023/11/14 01:32:44;;;;;;;32.83;6.35;;;11.80;87.80;;;;;;5015943;28;20040;-73
2023/11/14 01:35:10;;;;;;;39.63;6.25;;;11.90;79.60;;;;;;5016000;28;20034;-73
2023/11/14 01:37:35;;;;;;;32.75;6.85;;;11.90;70.00;;;;;;5015483;28;20057;-73
2023/11/14 01:40:01;;;;;;;34.53;5.22;;;11.90;80.00;;;;;;5015325;28;20026;-73
2023/11/14 01:42:27;;;;;;;37.17;6.97;;;11.90;80.40;;;;;;5015412;28;20032;-74
2023/11/14 01:44:52;;;;;;;31.45;6.20;;;11.80;97.90;;;;;;5015444;28;20034;-74
2023/11/14 01:47:19;;;;;;;37.95;6.65;;;11.80;99.80;;;;;;5015723;28;20090;-74
2023/11/14 01:49:45;;;;;;;33.03;6.07;;;11.70;99.90;;;;;;5015745;28;20561;-72
2023/11/14 01:52:12;;;;;;;39.25;7.15;;;11.60;99.90;;;;;;5015280;28;20490;-71
2023/11/14 01:54:40;;;;;;;42.88;6.75;;;11.60;99.90;;;;;;5015458;28;20026;-74
2023/11/14 01:57:10;;;;;;;42.55;7.00;;;11.50;99.90;;;;;;5015115;28;20368;-73
2023/11/14 01:59:36;;;;;;;46.13;7.55;;;11.50;99.90;;;;;;5015535;28;20490;-74
2023/11/14 02:02:02;;;;;;;45.13;8.00;;;11.30;99.90;;;;;;5015292;28;20064;-74
2023/11/14 02:04:29;;;;;;;35.78;6.35;;;11.20;99.90;;;;;;5015340;28;20061;-73
2023/11/14 02:06:56;;;;;;;40.53;6.00;;;11.10;99.90;;;;;;5015291;28;20369;-74
2023/11/14 02:09:22;;;;;;;35.83;6.70;;;11.10;99.90;;;;;;5015426;28;20056;-74
2023/11/14 02:11:47;;;;;;;48.28;7.53;;;11.20;99.90;;;;;;5015311;28;20034;-74
2023/11/14 02:14:13;;;;;;;39.35;6.95;;;11.20;99.90;;;;;;5015327;28;20092;-74
2023/11/14 02:16:49;;;;;;;39.15;7.47;;;11.20;99.90;;;;;;5015203;28;20455;-74
2023/11/14 02:19:16;;;;;;;34.42;6.20;;;11.30;99.90;;;;;;5015019;28;20041;-73
2023/11/14 02:21:42;;;;;;;34.78;6.65;;;11.40;99.90;;;;;;5015192;28;20498;-74
2023/11/14 02:24:11;;;;;;;44.38;6.38;;;11.50;99.90;;;;;;5014940;28;20487;-73
2023/11/14 02:26:36;;;;;;;40.30;6.65;;;11.60;99.90;;;;;;5014545;28;20057;-74
2023/11/14 02:29:02;;;;;;;33.58;6.68;;;11.60;99.90;;;;;;5014507;28;20498;-73
2023/11/14 02:31:29;;;;;;;31.08;6.60;;;11.60;99.90;;;;;;5014491;28;20058;-73
2023/11/14 02:33:55;;;;;;;33.92;6.68;;;11.60;99.90;;;;;;5014795;28;20471;-74
2023/11/14 02:36:20;;;;;;;36.13;6.57;;;11.70;99.90;;;;;;5014664;28;20088;-73
2023/11/14 02:38:46;;;;;;;35.92;6.38;;;11.80;99.90;;;;;;5014714;28;20026;-74
2023/11/14 02:41:14;;;;;;;45.30;6.65;;;11.70;99.90;;;;;;5014763;28;20048;-74
2023/11/14 02:43:40;;;;;;;41.15;7.53;;;11.80;99.90;;;;;;5014133;28;20026;-74
2023/11/14 02:46:07;;;;;;;36.95;6.47;;;11.80;99.90;;;;;;5014438;28;20041;-73
2023/11/14 02:48:32;;;;;;;41.42;7.28;;;11.80;99.90;;;;;;5014673;28;20022;-75
2023/11/14 02:50:58;;;;;;;37.15;6.95;;;11.90;98.70;;;;;;5014487;28;20494;-74
2023/11/14 02:53:24;;;;;;;38.13;6.57;;;11.80;99.90;;;;;;5014046;28;20041;-73
2023/11/14 02:55:50;;;;;;;36.90;5.93;;;11.80;99.90;;;;;;5014515;28;20503;-73
2023/11/14 02:58:17;;;;;;;32.60;5.78;;;11.80;99.90;;;;;;5014433;28;20034;-74
2023/11/14 03:00:45;;;;;;;38.72;6.88;;;11.80;99.90;;;;;;5014479;28;20030;-74
2023/11/14 03:03:13;;;;;;;35.33;6.20;;;11.80;99.90;;;;;;5013781;28;20045;-73
2023/11/14 03:05:39;;;;;;;41.78;7.00;;;11.70;99.90;;;;;;5013811;28;20030;-73
2023/11/14 03:08:05;;;;;;;29.85;6.10;;;11.80;99.90;;;;;;5014201;28;20030;-73
2023/11/14 03:10:30;;;;;;;38.47;8.50;;;11.80;95.40;;;;;;5014140;28;20026;-73
2023/11/14 03:12:57;;;;;;;38.65;7.00;;;11.90;96.70;;;;;;5013918;28;20028;-74
2023/11/14 03:15:23;;;;;;;41.13;7.35;;;11.80;99.90;;;;;;5013722;28;20395;-73
2023/11/14 03:17:49;;;;;;;39.00;7.18;;;11.80;99.90;;;;;;5014184;28;20026;-73
2023/11/14 03:20:15;;;;;;;45.30;6.50;;;11.80;99.90;;;;;;5014267;28;20034;-74
2023/11/14 03:22:40;;;;;;;39.25;7.50;;;11.90;97.60;;;;;;5014082;28;20045;-73
2023/11/14 03:25:06;;;;;;;31.30;6.75;;;11.80;96.30;;;;;;5013440;28;20032;-73
2023/11/14 03:27:32;;;;;;;33.78;6.78;;;11.80;99.60;;;;;;5013674;28;20033;-75
2023/11/14 03:29:59;;;;;;;36.42;7.35;;;11.80;99.90;;;;;;5013938;28;20021;-74
2023/11/14 03:32:24;;;;;;;37.90;6.53;;;11.70;99.90;;;;;;5013444;28;20018;-74
2023/11/14 03:34:50;;;;;;;39.50;7.60;;;11.50;99.90;;;;;;5013777;28;20048;-74
2023/11/14 03:37:16;;;;;;;44.53;8.15;;;11.40;99.90;;;;;;5013739;28;20049;-74
2023/11/14 03:39:42;;;;;;;49.15;8.05;;;11.40;99.90;;;;;;5013353;28;20026;-74
2023/11/14 03:42:08;;;;;;;50.58;7.55;;;11.30;99.90;;;;;;5013749;28;20035;-74
2023/11/14 03:44:33;;;;;;;42.50;7.22;;;11.40;99.90;;;;;;5013204;28;20061;-74
2023/11/14 03:46:59;;;;;;;44.70;7.60;;;11.40;99.90;;;;;;5013769;28;20030;-73
2023/11/14 03:49:24;;;;;;;39.15;7.07;;;11.30;99.90;;;;;;5013487;28;20053;-73
2023/11/14 03:51:50;;;;;;;38.50;6.97;;;11.30;99.90;;;;;;5013564;28;20547;-73
2023/11/14 03:54:15;;;;;;;34.95;7.47;;;11.30;99.90;;;;;;5013748;28;20029;-73
2023/11/14 03:56:41;;;;;;;33.35;6.65;;;11.20;99.90;;;;;;5013554;28;20034;-75
2023/11/14 03:59:07;;;;;;;36.55;6.53;;;11.20;99.90;;;;;;5013542;28;20064;-73
2023/11/14 04:01:32;;;;;;;33.80;6.47;;;11.20;99.90;;;;;;5013551;28;20026;-74
2023/11/14 04:03:59;;;;;;;35.58;6.72;;;11.20;99.90;;;;;;5012971;28;20038;-74
2023/11/14 04:06:24;;;;;;;38.38;7.47;;;11.10;99.90;;;;;;5013243;28;20446;-74
2023/11/14 04:08:50;;;;;;;39.20;7.35;;;11.10;99.90;;;;;;5013774;28;20034;-75
2023/11/14 04:11:16;;;;;;;42.63;7.10;;;11.10;99.90;;;;;;5013554;28;20412;-74
2023/11/14 04:13:41;;;;;;;35.78;7.03;;;11.00;99.90;;;;;;5013726;28;20103;-74
2023/11/14 04:16:07;;;;;;;39.78;7.60;;;11.00;99.90;;;;;;5013677;28;20025;-73
2023/11/14 04:18:33;;;;;;;42.78;7.18;;;11.10;99.90;;;;;;5013775;28;20429;-74
2023/11/14 04:20:58;;;;;;;46.92;7.93;;;11.10;99.90;;;;;;5013371;28;20026;-74
2023/11/14 04:23:24;;;;;;;40.63;6.63;;;11.10;99.90;;;;;;5013919;28;20052;-74
2023/11/14 04:25:50;;;;;;;38.28;6.72;;;11.10;99.90;;;;;;5013328;28;20072;-73
2023/11/14 04:28:15;;;;;;;35.58;7.10;;;11.20;99.90;;;;;;5016227;28;20029;-73
2023/11/14 04:30:41;;;;;;;38.95;7.35;;;11.20;99.90;;;;;;5017145;28;20072;-73
2023/11/14 04:33:06;;;;;;;32.95;7.03;;;11.20;99.90;;;;;;5017409;28;20080;-74
2023/11/14 04:35:32;;;;;;;37.53;7.68;;;11.20;99.90;;;;;;5016856;28;20034;-74
2023/11/14 04:37:58;;;;;;;33.88;6.70;;;11.30;99.90;;;;;;5017340;28;20026;-74
2023/11/14 04:40:24;;;;;;;43.45;7.47;;;11.30;99.90;;;;;;5017325;28;20033;-73
2023/11/14 04:42:49;;;;;;;37.53;7.47;;;11.20;99.90;;;;;;5017074;28;20062;-74
2023/11/14 04:45:15;;;;;;;43.03;7.07;;;11.30;99.90;;;;;;5016736;28;20510;-73
2023/11/14 04:47:41;;;;;;;33.30;6.70;;;11.30;99.90;;;;;;5016815;28;20395;-73
2023/11/14 04:50:07;;;;;;;35.90;6.15;;;11.30;99.90;;;;;;5016391;28;20022;-74
2023/11/14 04:52:34;;;;;;;36.90;7.70;;;11.30;99.90;;;;;;5016568;28;20022;-74
2023/11/14 04:55:00;;;;;;;40.63;6.90;;;11.30;99.90;;;;;;5016715;28;20044;-74
2023/11/14 04:57:26;;;;;;;39.55;6.80;;;11.20;99.90;;;;;;5016157;28;20113;-74
2023/11/14 04:59:52;;;;;;;38.33;6.68;;;11.10;99.90;;;;;;5016604;28;20030;-74
2023/11/14 05:02:18;;;;;;;40.35;7.32;;;11.20;99.90;;;;;;5016202;28;20492;-74
2023/11/14 05:04:43;;;;;;;40.90;7.13;;;11.10;99.90;;;;;;5016423;28;20407;-74
2023/11/14 05:07:10;;;;;;;48.00;8.25;;;11.10;99.90;;;;;;5016050;28;20022;-75
2023/11/14 05:09:36;;;;;;;42.83;7.90;;;11.10;99.90;;;;;;5016454;28;20395;-74
2023/11/14 05:12:01;;;;;;;45.53;8.10;;;11.20;99.90;;;;;;5015977;28;20040;-75
2023/11/14 05:14:27;;;;;;;36.22;7.22;;;11.10;99.90;;;;;;5016339;28;20026;-73
2023/11/14 05:16:56;;;;;;;33.65;6.90;;;11.20;99.90;;;;;;5016343;28;20030;-73
2023/11/14 05:19:24;;;;;;;40.15;7.30;;;11.20;99.90;;;;;;5015776;28;20030;-74
2023/11/14 05:21:50;;;;;;;39.38;8.07;;;11.20;99.90;;;;;;5015748;28;20030;-74
2023/11/14 05:24:16;;;;;;;31.45;6.07;;;11.10;99.90;;;;;;5015598;28;20033;-73
2023/11/14 05:26:42;;;;;;;32.28;6.45;;;11.10;99.90;;;;;;5016052;28;20069;-74
2023/11/14 05:29:08;;;;;;;35.67;6.28;;;11.10;99.90;;;;;;5016123;28;20055;-74
2023/11/14 05:31:34;;;;;;;33.45;6.93;;;11.10;99.90;;;;;;5015877;28;20096;-74
2023/11/14 05:34:00;;;;;;;37.28;6.30;;;11.10;99.90;;;;;;5016015;28;20120;-74
2023/11/14 05:36:26;;;;;;;36.53;6.72;;;11.10;99.90;;;;;;5015482;28;20061;-73
2023/11/14 05:38:51;;;;;;;41.70;7.78;;;11.10;99.90;;;;;;5015488;28;20080;-74
2023/11/14 05:41:17;;;;;;;33.17;6.75;;;11.10;99.90;;;;;;5016063;28;20120;-74
2023/11/14 05:43:44;;;;;;;31.95;7.50;;;11.20;99.90;;;;;;5015748;28;20033;-74
2023/11/14 05:46:10;;;;;;;35.30;7.22;;;11.30;99.90;;;;;;5015215;28;20064;-72
2023/11/14 05:48:35;;;;;;;32.78;7.22;;;11.30;99.90;;;;;;5015679;28;20479;-74
2023/11/14 05:51:02;;;;;;;34.63;7.28;;;11.30;99.90;;;;;;5015614;28;20026;-74
2023/11/14 05:53:27;;;;;;;39.25;6.95;;;11.30;99.90;;;;;;5015704;28;20029;-74
2023/11/14 05:55:53;;;;;;;42.17;7.82;;;11.30;99.90;;;;;;5015339;28;20045;-74
2023/11/14 05:58:19;;;;;;;34.55;6.57;;;11.30;99.90;;;;;;5015057;28;20033;-74
2023/11/14 06:00:45;;;;;;;30.58;6.97;;;11.30;99.90;;;;;;5015204;28;20034;-74
2023/11/14 06:03:12;;;;;;;38.85;8.18;;;11.30;99.90;;;;;;5014807;28;20045;-74
2023/11/14 06:05:37;;;;;;;40.08;7.50;;;11.30;99.90;;;;;;5015227;28;20394;-74
2023/11/14 06:08:03;;;;;;;33.17;7.15;;;11.30;99.90;;;;;;5015358;28;20109;-75
2023/11/14 06:10:29;;;;;;;41.88;8.30;;;11.30;99.90;;;;;;5015372;28;20033;-75
2023/11/14 06:12:58;;;;;;;40.40;7.70;;;11.40;99.90;;;;;;5014766;28;20464;-73
2023/11/14 06:15:24;;;;;;;36.55;7.43;;;11.30;99.90;;;;;;5015092;28;20065;-75
2023/11/14 06:17:50;;;;;;;37.35;7.07;;;11.30;99.90;;;;;;5015102;28;20033;-74
2023/11/14 06:20:17;;;;;;;32.92;7.32;;;11.30;99.90;;;;;;5015159;28;20415;-75
2023/11/14 06:22:42;;;;;;;33.58;7.07;;;11.40;99.90;;;;;;5014899;28;20034;-74
2023/11/14 06:25:08;;;;;;;33.60;7.47;;;11.30;99.90;;;;;;5014844;28;20029;-74
2023/11/14 06:27:34;;;;;;;39.85;7.88;;;11.30;99.90;;;;;;5014914;28;20101;-75
2023/11/14 06:30:00;;;;;;;48.13;7.75;;;11.40;99.90;;;;;;5014807;28;20029;-72
2023/11/14 06:32:25;;;;;;;41.08;8.13;;;11.30;99.90;;;;;;5014741;28;20034;-74
2023/11/14 06:34:52;;;;;;;37.42;7.88;;;11.40;99.90;;;;;;5014388;28;20026;-73
2023/11/14 06:37:19;;;;;;;33.50;7.18;;;11.40;99.90;;;;;;5014795;28;20060;-74
2023/11/14 06:39:45;;;;;;;43.15;8.77;;;11.40;99.90;;;;;;5014731;28;20065;-74
2023/11/14 06:42:11;;;;;;;41.03;8.35;;;11.40;99.90;;;;;;5014623;28;20034;-74
2023/11/14 06:44:36;;;;;;;37.25;7.82;;;11.40;99.90;;;;;;5014545;28;20026;-74
2023/11/14 06:47:03;;;;;;;43.05;7.38;;;11.40;99.90;;;;;;5014220;28;20018;-74
2023/11/14 06:49:29;;;;;;;39.08;7.28;;;11.40;99.90;;;;;;5013536;28;20080;-74
2023/11/14 06:51:54;;;;;;;31.70;7.50;;;11.50;99.90;;;;;;5014378;28;20061;-74
2023/11/14 06:54:20;;;;;;;40.45;7.63;;;11.40;99.90;;;;;;5014479;28;20489;-74
2023/11/14 06:56:46;;;;;;;39.38;8.07;;;11.40;99.90;;;;;;5014280;28;20034;-74
2023/11/14 06:59:11;;;;;;;35.28;7.28;;;11.40;99.90;;;;;;5014165;28;20025;-74
2023/11/14 07:01:37;;;;;;;32.63;8.80;;;11.40;99.90;;;;;;5013867;28;20025;-74
2023/11/14 07:04:03;;;;;;;37.15;8.07;;;11.40;99.90;;;;;;5013810;28;20499;-74
2023/11/14 07:06:29;;;;;;;43.17;8.07;;;11.40;99.90;;;;;;5014008;28;20065;-73
2023/11/14 07:08:56;;;;;;;41.17;9.15;;;11.40;99.90;;;;;;5014144;28;20475;-73
2023/11/14 07:11:22;;;;;;;39.17;8.00;;;11.50;99.90;;;;;;5013674;28;20494;-74
2023/11/14 07:13:48;;;;;;;35.40;7.45;;;11.50;99.90;;;;;;5013845;28;20046;-74
2023/11/14 07:16:14;;;;;;;36.45;12.38;;;11.60;99.90;;;;;;5014184;28;20573;-74
2023/11/14 07:18:40;;;;;;;49.67;14.48;;;11.60;99.90;;;;;;5013759;28;20117;-73
2023/11/14 07:21:06;;;;;;;59.03;21.33;;;11.70;99.90;;;;;;5013624;28;20083;-73
2023/11/14 07:23:32;;;;;;;51.38;21.35;;;11.80;99.90;;;;;;5006758;28;20541;-74
2023/11/14 07:25:57;;;;;;;55.97;17.75;;;11.80;99.90;;;;;;5006092;28;20480;-74
2023/11/14 07:28:23;;;;;;;48.28;10.93;;;11.80;99.90;;;;;;4997441;28;20471;-74
2023/11/14 07:30:49;;;;;;;45.15;9.95;;;11.90;99.90;;;;;;5008385;28;20027;-74
2023/11/14 07:33:15;;;;;;;50.00;10.90;;;11.80;99.90;;;;;;4995881;28;20030;-74
2023/11/14 07:35:41;;;;;;;39.95;9.23;;;11.90;99.90;;;;;;4997053;28;20041;-74
2023/11/14 07:38:07;;;;;;;37.90;9.73;;;11.90;99.90;;;;;;5000573;28;20034;-73
2023/11/14 07:40:33;;;;;;;35.55;8.00;;;11.90;99.90;;;;;;5006255;28;20084;-73
2023/11/14 07:43:02;;;;;;;43.60;10.05;;;11.90;99.90;;;;;;5007999;28;20030;-75
2023/11/14 07:45:28;;;;;;;42.92;9.13;;;11.90;99.90;;;;;;4993846;28;20053;-75
2023/11/14 07:47:54;;;;;;;41.17;9.45;;;11.90;99.90;;;;;;4993567;28;20027;-75
2023/11/14 07:50:19;;;;;;;31.38;6.95;;;12.00;99.90;;;;;;4993943;28;20086;-73
2023/11/14 07:52:45;;;;;;;31.15;8.00;;;12.10;99.90;;;;;;5004432;28;20495;-73
2023/11/14 07:55:11;;;;;;;35.95;7.65;;;12.00;99.80;;;;;;5013203;28;20430;-73
2023/11/14 07:57:38;;;;;;;41.25;8.25;;;12.00;99.90;;;;;;5009463;28;20019;-74
2023/11/14 08:00:07;;;;;;;44.85;8.70;;;11.90;99.90;;;;;;5006183;28;20406;-73
2023/11/14 08:02:33;;;;;;;38.97;7.97;;;11.80;99.90;;;;;;5003633;28;20080;-74
2023/11/14 08:04:58;;;;;;;38.88;7.15;;;11.70;99.90;;;;;;5017527;28;20030;-73
2023/11/14 08:07:24;;;;;;;37.72;7.65;;;11.70;99.90;;;;;;5013964;28;20037;-73
2023/11/14 08:09:50;;;;;;;40.13;9.25;;;11.70;99.90;;;;;;4998401;28;20026;-73
2023/11/14 08:12:15;;;;;;;42.88;10.07;;;11.70;99.90;;;;;;5010983;28;20061;-72
2023/11/14 08:14:41;;;;;;;53.65;14.60;;;11.60;99.90;;;;;;4999532;28;20484;-72
2023/11/14 08:17:07;;;;;;;61.88;18.63;;;11.70;99.90;;;;;;5012273;28;20037;-72
2023/11/14 08:19:33;;;;;;;54.30;15.23;;;11.70;99.90;;;;;;5005861;28;20486;-73
2023/11/14 08:22:04;;;;;;;39.17;11.70;;;11.70;99.90;;;;;;5000619;28;20113;-72
2023/11/14 08:24:30;;;;;;;41.47;8.80;;;11.70;99.90;;;;;;4996682;28;20027;-75
2023/11/14 08:26:55;;;;;;;40.33;7.47;;;11.80;99.90;;;;;;5008230;28;20480;-73
2023/11/14 08:29:23;;;;;;;42.72;8.52;;;11.80;99.90;;;;;;5007067;28;20036;-73
2023/11/14 08:31:49;;;;;;;39.85;7.68;;;11.80;99.90;;;;;;5007974;28;20054;-74
2023/11/14 08:34:15;;;;;;;32.38;7.22;;;11.80;99.90;;;;;;4997975;28;20062;-74
2023/11/14 08:36:41;;;;;;;33.17;7.20;;;11.90;99.90;;;;;;5015414;28;20077;-75
2023/11/14 08:39:09;;;;;;;43.53;7.80;;;11.90;99.90;;;;;;5016433;28;20026;-74
2023/11/14 08:41:35;;;;;;;34.20;7.70;;;12.00;99.90;;;;;;4997581;28;20525;-74
2023/11/14 08:44:01;;;;;;;39.85;7.85;;;12.00;99.90;;;;;;5007080;28;20116;-74
2023/11/14 08:46:27;;;;;;;38.35;7.13;;;12.00;99.90;;;;;;5016250;28;20120;-72
2023/11/14 08:48:53;;;;;;;36.10;6.93;;;12.10;99.90;;;;;;5011674;28;20033;-73
2023/11/14 08:51:21;;;;;;;35.85;6.75;;;12.20;99.90;;;;;;4997191;28;20471;-74
2023/11/14 08:53:46;;;;;;;33.03;6.35;;;12.20;99.90;;;;;;4996706;28;20022;-74
2023/11/14 08:56:12;;;;;;;30.52;6.78;;;12.20;99.90;;;;;;5001942;28;20092;-74
2023/11/14 08:58:38;;;;;;;37.15;6.55;;;12.20;99.90;;;;;;5015747;28;20026;-73
2023/11/14 09:01:04;;;;;;;30.23;7.10;;;12.20;99.90;;;;;;5004254;28;20057;-74
2023/11/14 09:03:30;;;;;;;42.05;7.15;;;12.10;99.90;;;;;;5001015;28;20060;-74
2023/11/14 09:05:56;;;;;;;32.25;6.57;;;12.10;99.90;;;;;;5015954;28;20455;-73
2023/11/14 09:08:22;;;;;;;27.35;6.38;;;12.20;99.90;;;;;;5016450;28;20026;-73
2023/11/14 09:10:48;;;;;;;31.52;6.43;;;12.10;99.90;;;;;;5005183;28;20022;-73
2023/11/14 09:13:13;;;;;;;34.30;7.60;;;12.10;99.90;;;;;;4999149;28;20058;-73
2023/11/14 09:15:40;;;;;;;39.05;6.72;;;12.10;99.90;;;;;;5008549;28;20030;-74
2023/11/14 09:18:07;;;;;;;35.20;6.63;;;12.10;99.90;;;;;;5004462;28;20549;-73
2023/11/14 09:20:33;;;;;;;34.72;6.40;;;12.10;99.90;;;;;;5008569;28;20495;-73
2023/11/14 09:22:59;;;;;;;34.40;6.78;;;12.10;99.90;;;;;;5011448;28;20030;-74
2023/11/14 09:25:25;;;;;;;28.50;6.47;;;12.10;99.90;;;;;;5006583;28;20041;-73
2023/11/14 09:27:51;;;;;;;35.53;6.32;;;12.30;99.90;;;;;;4996066;28;20383;-73
2023/11/14 09:30:17;;;;;;;30.92;6.85;;;12.30;99.90;;;;;;5010388;28;20030;-73
2023/11/14 09:32:43;;;;;;;29.67;5.95;;;12.30;99.90;;;;;;5012302;28;20117;-73
2023/11/14 09:35:10;;;;;;;34.00;6.47;;;12.30;99.90;;;;;;4996387;28;20069;-74
2023/11/14 09:37:36;;;;;;;43.03;8.02;;;12.50;99.90;;;;;;4996393;28;20108;-74
2023/11/14 09:40:04;;;;;;;34.75;6.82;;;12.70;98.30;;;;;;5007786;28;20026;-73
2023/11/14 09:42:30;;;;;;;34.00;6.95;;;12.80;89.50;;;;;;5015651;28;20376;-72
2023/11/14 09:44:57;;;;;;;32.13;6.78;;;12.80;86.60;;;;;;5015467;28;20052;-73
2023/11/14 09:47:22;;;;;;;35.28;6.82;;;12.90;88.90;;;;;;5015742;28;20034;-74
2023/11/14 09:49:49;;;;;;;33.88;6.75;;;12.90;85.60;;;;;;5015637;28;20026;-73
2023/11/14 09:52:15;;;;;;;39.35;7.15;;;12.90;78.90;;;;;;5015602;28;20437;-73
2023/11/14 09:54:41;;;;;;;25.50;5.30;;;12.90;87.00;;;;;;5014972;28;20444;-74
2023/11/14 09:57:08;;;;;;;28.88;5.63;;;13.00;64.70;;;;;;5015196;28;20088;-74
2023/11/14 09:59:35;;;;;;;32.60;6.43;;;13.00;64.80;;;;;;5011625;28;20436;-73
2023/11/14 10:02:01;;;;;;;31.58;5.80;;;13.30;65.90;;;;;;5008106;28;20060;-72
2023/11/14 10:04:27;;;;;;;24.35;5.95;;;13.30;45.70;;;;;;4999273;28;20047;-73
2023/11/14 10:06:53;;;;;;;23.80;5.60;;;13.10;46.30;;;;;;5012758;28;20030;-74
2023/11/14 10:09:21;;;;;;;37.92;6.93;;;13.10;61.60;;;;;;5003349;28;20484;-74
2023/11/14 10:11:48;;;;;;;36.25;6.65;;;13.30;45.10;;;;;;4997156;28;20036;-73
2023/11/14 10:14:14;;;;;;;26.02;5.50;;;13.20;43.10;;;;;;5009130;28;20050;-73
2023/11/14 10:16:40;;;;;;;30.73;5.20;;;13.40;44.50;;;;;;4995310;28;20034;-74
2023/11/14 10:19:14;;;;;;;26.63;5.45;;;13.90;9.00;;;;;;4995610;28;20030;-73
2023/11/14 10:21:40;;;;;;;33.40;5.70;;;13.80;6.60;;;;;;4995597;28;20038;-73
2023/11/14 10:24:15;;;;;;;29.95;5.85;;;13.40;20.60;;;;;;4998924;28;20394;-72
2023/11/14 10:26:52;;;;;;;27.73;5.00;;;13.20;44.70;;;;;;5013076;28;20116;-74
2023/11/14 10:29:19;;;;;;;19.10;5.63;;;13.10;50.30;;;;;;5015035;28;20030;-74
2023/11/14 10:31:45;;;;;;;27.75;5.40;;;13.10;49.50;;;;;;4995191;28;20114;-74
2023/11/14 10:34:33;;;;;;;24.00;5.53;;;13.00;44.10;;;;;;4998618;28;20052;-72
2023/11/14 10:37:00;;;;;;;32.17;5.80;;;13.00;36.80;;;;;;4997465;28;20376;-72
2023/11/14 10:39:26;;;;;;;21.77;5.03;;;13.00;33.60;;;;;;5006771;28;20030;-74
2023/11/14 10:41:52;;;;;;;29.02;5.15;;;13.00;32.30;;;;;;4994752;28;20077;-75
2023/11/14 10:44:20;;;;;;;25.83;6.35;;;13.50;26.90;;;;;;5011937;28;20029;-73
2023/11/14 10:46:49;;;;;;;30.98;5.57;;;13.70;15.00;;;;;;5014452;28;20037;-72
2023/11/14 10:49:16;;;;;;;23.35;5.32;;;13.70;1.00;;;;;;5015172;28;20468;-72
2023/11/14 10:51:42;;;;;;;30.48;6.55;;;13.50;14.00;;;;;;5014861;28;20025;-72
2023/11/14 10:54:09;;;;;;;30.00;6.85;;;13.50;7.00;;;;;;5014920;28;20571;-72
2023/11/14 10:56:36;;;;;;;24.30;5.45;;;13.60;13.40;;;;;;5014838;28;20057;-72
2023/11/14 10:59:10;;;;;;;31.85;6.07;;;13.60;1.00;;;;;;5014838;28;20030;-73
2023/11/14 11:01:37;;;;;;;32.17;6.25;;;13.60;9.10;;;;;;5013274;28;20112;-72
2023/11/14 11:04:08;;;;;;;22.88;5.45;;;13.60;4.10;;;;;;4994201;28;20050;-73
2023/11/14 11:06:33;;;;;;;36.28;6.25;;;13.40;19.20;;;;;;4994360;28;20054;-73
2023/11/14 11:08:59;;;;;;;30.65;6.03;;;13.20;34.00;;;;;;5008755;28;20068;-73
2023/11/14 11:11:35;;;;;;;33.92;6.35;;;13.10;79.00;;;;;;5002588;28;20033;-72
2023/11/14 11:14:03;;;;;;;27.08;5.53;;;12.90;88.10;;;;;;5002431;28;20040;-73
2023/11/14 11:16:49;;;;;;;33.42;6.35;;;12.90;90.10;;;;;;5002056;28;20424;-72
2023/11/14 11:19:26;;;;;;;38.15;6.80;;;13.00;92.50;;;;;;4999896;28;20034;-73
2023/11/14 11:22:09;;;;;;;37.90;6.78;;;13.00;92.60;;;;;;5013572;28;20087;-73
2023/11/14 11:24:36;;;;;;;;;;;13.00;88.50;;;;;;5010743;28;20125;-72
2023/11/14 11:27:21;;;;;;;33.83;6.15;;;12.90;99.90;;;;;;5009516;28;19917;-72
2023/11/14 11:29:54;;;;;;;31.95;6.00;;;12.80;99.90;;;;;;5013923;28;20565;-73
2023/11/14 11:32:32;;;;;;;35.28;6.50;;;12.80;99.90;;;;;;5013658;28;20380;-73
2023/11/14 11:37:58;;;;;;;31.45;6.47;;;12.60;99.90;;;;;;5110990;27;20109;-71
2023/11/14 11:40:27;;;;;;;30.45;6.35;;;12.50;99.90;;;;;;5111184;28;20024;-71
2023/11/14 11:42:55;;;;;;;29.75;6.40;;;12.50;99.90;;;;;;5110403;28;20106;-72
2023/11/14 11:48:35;;;;;;;39.45;6.75;;;12.50;99.90;;;;;;5110883;27;20380;-70
2023/11/14 11:51:21;;;;;;;26.23;6.03;;;12.50;99.90;;;;;;5096901;28;20058;-72
2023/11/14 11:53:49;;;;;;;35.58;7.25;;;12.50;99.90;;;;;;5119806;28;20382;-72
2023/11/14 11:59:13;;;;;;;35.03;6.40;;;12.50;99.90;;;;;;5119435;27;20318;-71
2023/11/14 12:01:48;;;;;;;30.90;6.78;;;12.50;99.90;;;;;;5131735;27;20549;-71
2023/11/14 12:04:16;;;;;;;32.75;6.78;;;12.40;99.90;;;;;;5131671;28;20054;-71
2023/11/14 12:06:43;;;;;;;32.63;6.68;;;12.40;99.90;;;;;;5131121;28;20028;-71
2023/11/14 12:09:09;;;;;;;33.17;6.97;;;12.50;99.90;;;;;;5131468;28;20024;-71
2023/11/14 12:11:35;;;;;;;23.00;5.90;;;12.60;99.90;;;;;;5122471;28;20024;-71
2023/11/14 12:14:01;;;;;;;26.73;5.32;;;12.80;99.90;;;;;;5109820;28;20515;-71
2023/11/14 12:16:27;;;;;;;26.70;5.78;;;12.90;99.90;;;;;;5110604;28;20701;-71
2023/11/14 12:18:55;;;;;;;20.15;4.38;;;13.00;94.70;;;;;;5108113;28;20385;-71
2023/11/14 12:21:21;;;;;;;17.20;4.65;;;13.10;82.50;;;;;;5089463;28;20595;-71
2023/11/14 12:23:46;;;;;;;19.70;3.83;;;13.10;67.70;;;;;;5098550;28;20080;-75
2023/11/14 12:26:13;;;;;;;15.27;3.80;;;13.00;58.60;;;;;;5105225;28;20035;-74
2023/11/14 12:28:40;;;;;;;14.50;3.60;;;13.10;59.00;;;;;;5110026;28;20385;-70
2023/11/14 12:31:08;;;;;;;23.70;3.85;;;13.10;45.60;;;;;;5105622;28;20028;-71
2023/11/14 12:33:52;;;;;;;17.27;3.45;;;13.00;50.50;;;;;;5092905;28;20123;-71
2023/11/14 12:36:22;;;;;;;19.17;3.58;;;13.20;51.70;;;;;;5110516;28;20038;-71
2023/11/14 12:38:48;;;;;;;13.90;3.80;;;13.20;46.60;;;;;;5109935;28;20024;-71
2023/11/14 12:43:57;;;;;;;12.85;2.83;;;13.20;44.90;;;;;;5107897;27;20431;-71
2023/11/14 12:46:25;;;;;;;15.35;3.47;;;13.30;29.20;;;;;;5082110;28;20470;-72